createdAt,value
2022-11-02T00:01:31.006Z,9.86
2022-11-02T00:03:58.833Z,9.94
2022-11-02T00:06:26.603Z,9.96
2022-11-02T00:08:54.408Z,9.97
2022-11-02T00:11:22.868Z,9.96
2022-11-02T00:13:50.859Z,9.98
2022-11-02T00:16:20.586Z,9.99
2022-11-02T00:18:51.636Z,9.98
2022-11-02T00:21:21.776Z,9.97
2022-11-02T00:23:50.203Z,9.95
2022-11-02T00:26:18.826Z,9.94
2022-11-02T00:28:46.937Z,9.94
2022-11-02T00:31:15.299Z,9.92
2022-11-02T00:33:43.340Z,9.92
2022-11-02T00:36:11.783Z,9.90
2022-11-02T00:38:40.575Z,9.91
2022-11-02T00:41:08.647Z,9.90
2022-11-02T00:43:36.718Z,9.89
2022-11-02T00:46:05.611Z,9.92
2022-11-02T00:48:33.391Z,9.92
2022-11-02T00:51:01.759Z,9.91
2022-11-02T00:53:29.673Z,9.87
2022-11-02T00:55:57.794Z,9.84
2022-11-02T00:58:25.558Z,9.87
2022-11-02T01:00:53.624Z,9.86
2022-11-02T01:03:21.595Z,9.89
2022-11-02T01:05:49.982Z,9.92
2022-11-02T01:08:17.946Z,9.93
2022-11-02T01:10:48.208Z,9.93
2022-11-02T01:13:17.562Z,9.94
2022-11-02T01:15:45.331Z,9.94
2022-11-02T01:18:13.083Z,9.92
2022-11-02T01:20:40.962Z,9.89
2022-11-02T01:23:08.824Z,9.89
2022-11-02T01:25:36.653Z,9.91
2022-11-02T01:28:05.071Z,9.90
2022-11-02T01:30:33.960Z,9.90
2022-11-02T01:33:01.827Z,9.89
2022-11-02T01:35:29.689Z,9.91
2022-11-02T01:37:57.368Z,9.91
2022-11-02T01:40:25.228Z,9.89
2022-11-02T01:42:53.205Z,9.91
2022-11-02T01:45:21.460Z,9.92
2022-11-02T01:47:49.737Z,9.91
2022-11-02T01:50:23.900Z,9.92
2022-11-02T01:52:52.134Z,9.93
2022-11-02T01:55:26.165Z,9.92
2022-11-02T01:58:00.103Z,9.92
2022-11-02T02:00:28.176Z,9.93
2022-11-02T02:03:11.686Z,9.93
2022-11-02T02:05:46.787Z,9.89
2022-11-02T02:08:23.564Z,9.93
2022-11-02T02:10:51.320Z,9.95
2022-11-02T02:13:19.426Z,9.96
2022-11-02T02:15:56.381Z,9.96
2022-11-02T02:18:50.453Z,9.95
2022-11-02T02:22:15.872Z,9.96
2022-11-02T02:24:50.674Z,9.96
2022-11-02T02:27:41.817Z,9.93
2022-11-02T02:30:10.705Z,9.95
2022-11-02T02:33:01.314Z,9.97
2022-11-02T02:35:43.726Z,9.95
2022-11-02T02:38:17.970Z,9.95
2022-11-02T02:40:52.752Z,9.95
2022-11-02T02:43:20.824Z,9.95
2022-11-02T02:46:06.722Z,9.94
2022-11-02T02:48:39.901Z,9.95
2022-11-02T02:51:11.355Z,9.97
2022-11-02T02:53:44.044Z,9.96
2022-11-02T02:56:16.063Z,9.95
2022-11-02T02:59:00.960Z,9.95
2022-11-02T03:01:29.256Z,9.93
2022-11-02T03:03:57.232Z,9.92
2022-11-02T03:06:30.898Z,9.95
2022-11-02T03:09:11.270Z,9.95
2022-11-02T03:11:55.802Z,9.93
2022-11-02T03:14:44.789Z,9.96
2022-11-02T03:17:21.584Z,9.96
2022-11-02T03:20:03.556Z,9.97
2022-11-02T03:22:35.111Z,9.97
2022-11-02T03:25:26.321Z,9.97
2022-11-02T03:28:11.901Z,9.96
2022-11-02T03:30:51.343Z,9.94
2022-11-02T03:33:34.931Z,9.96
2022-11-02T03:36:07.457Z,10.00
2022-11-02T03:38:45.151Z,10.00
2022-11-02T03:41:15.951Z,10.03
2022-11-02T03:43:46.412Z,10.05
2022-11-02T03:46:16.734Z,10.04
2022-11-02T03:48:46.838Z,10.04
2022-11-02T03:51:20.094Z,10.03
2022-11-02T03:53:58.641Z,10.00
2022-11-02T03:56:36.155Z,10.01
2022-11-02T03:59:04.432Z,10.03
2022-11-02T04:01:42.142Z,10.04
2022-11-02T04:04:10.690Z,10.06
2022-11-02T04:06:39.777Z,10.10
2022-11-02T04:09:08.693Z,10.12
2022-11-02T04:11:55.810Z,10.16
2022-11-02T04:14:38.689Z,10.18
2022-11-02T04:19:59.169Z,10.17
2022-11-02T04:22:45.819Z,10.18
2022-11-02T04:25:19.442Z,10.16
2022-11-02T04:28:08.566Z,10.19
2022-11-02T04:30:40.367Z,10.24
2022-11-02T04:33:27.084Z,10.25
2022-11-02T04:36:06.849Z,10.23
2022-11-02T04:38:41.127Z,10.22
2022-11-02T04:41:36.954Z,10.23
2022-11-02T04:44:06.204Z,10.23
2022-11-02T04:46:36.699Z,10.23
2022-11-02T04:49:05.762Z,10.21
2022-11-02T04:51:35.189Z,10.20
2022-11-02T04:54:04.182Z,10.20
2022-11-02T04:56:36.648Z,10.21
2022-11-02T04:59:04.723Z,10.23
2022-11-02T05:01:35.222Z,10.22
2022-11-02T05:04:04.638Z,10.22
2022-11-02T05:06:33.671Z,10.22
2022-11-02T05:09:02.172Z,10.23
2022-11-02T05:11:30.398Z,10.23
2022-11-02T05:13:58.577Z,10.20
2022-11-02T05:16:26.680Z,10.18
2022-11-02T05:18:54.928Z,10.19
2022-11-02T05:21:23.438Z,10.21
2022-11-02T05:23:51.677Z,10.22
2022-11-02T05:26:19.458Z,10.25
2022-11-02T05:28:50.757Z,10.28
2022-11-02T05:31:18.674Z,10.30
2022-11-02T05:33:46.938Z,10.32
2022-11-02T05:36:17.808Z,10.35
2022-11-02T05:38:47.528Z,10.37
2022-11-02T05:41:15.557Z,10.39
2022-11-02T05:43:43.878Z,10.40
2022-11-02T05:46:16.057Z,10.39
2022-11-02T05:48:43.818Z,10.40
2022-11-02T05:51:11.619Z,10.39
2022-11-02T05:53:39.753Z,10.37
2022-11-02T05:56:10.628Z,10.34
2022-11-02T05:58:38.443Z,10.36
2022-11-02T06:01:08.799Z,10.37
2022-11-02T06:03:36.898Z,10.37
2022-11-02T06:06:08.200Z,10.38
2022-11-02T06:08:38.258Z,10.39
2022-11-02T06:11:11.929Z,10.39
2022-11-02T06:13:41.265Z,10.43
2022-11-02T06:16:11.929Z,10.44
2022-11-02T06:18:39.859Z,10.43
2022-11-02T06:21:07.888Z,10.43
2022-11-02T06:23:36.512Z,10.44
2022-11-02T06:26:04.891Z,10.49
2022-11-02T06:28:33.068Z,10.50
2022-11-02T06:31:00.932Z,10.51
2022-11-02T06:33:30.054Z,10.49
2022-11-02T06:35:58.200Z,10.52
2022-11-02T06:38:26.577Z,10.55
2022-11-02T06:40:56.433Z,10.55
2022-11-02T06:43:25.506Z,10.54
2022-11-02T06:45:58.449Z,10.57
2022-11-02T06:48:34.289Z,10.59
2022-11-02T06:51:05.295Z,10.57
2022-11-02T06:53:33.644Z,10.55
2022-11-02T06:56:01.714Z,10.54
2022-11-02T06:58:29.781Z,10.53
2022-11-02T07:01:02.969Z,10.51
2022-11-02T07:03:31.543Z,10.53
2022-11-02T07:05:59.931Z,10.54
2022-11-02T07:08:28.741Z,10.54
2022-11-02T07:10:57.406Z,10.56
2022-11-02T07:13:25.890Z,10.61
2022-11-02T07:15:54.891Z,10.65
2022-11-02T07:18:23.366Z,10.67
2022-11-02T07:20:51.329Z,10.71
2022-11-02T07:23:23.762Z,10.75
2022-11-02T07:25:52.181Z,10.78
2022-11-02T07:28:20.719Z,10.81
2022-11-02T07:30:48.864Z,10.79
2022-11-02T07:33:16.660Z,10.79
2022-11-02T07:35:45.032Z,10.81
2022-11-02T07:38:12.946Z,10.81
2022-11-02T07:40:40.799Z,10.83
2022-11-02T07:43:09.100Z,10.84
2022-11-02T07:45:52.981Z,10.85
2022-11-02T07:48:21.418Z,10.90
2022-11-02T07:50:49.172Z,10.90
2022-11-02T07:53:16.931Z,10.92
2022-11-02T07:55:44.804Z,10.89
2022-11-02T07:58:15.642Z,10.85
2022-11-02T08:00:43.940Z,10.87
2022-11-02T08:03:12.640Z,10.86
2022-11-02T08:05:43.205Z,10.88
2022-11-02T08:08:18.103Z,10.90
2022-11-02T08:10:47.892Z,10.89
2022-11-02T08:13:21.949Z,10.88
2022-11-02T08:15:51.473Z,10.87
2022-11-02T08:18:22.018Z,10.89
2022-11-02T08:20:50.874Z,10.90
2022-11-02T08:23:20.003Z,10.91
2022-11-02T08:25:49.272Z,10.90
2022-11-02T08:28:26.537Z,10.92
2022-11-02T08:30:54.689Z,10.96
2022-11-02T08:33:22.461Z,10.99
2022-11-02T08:35:50.904Z,11.00
2022-11-02T08:38:22.660Z,11.04
2022-11-02T08:40:50.514Z,11.08
2022-11-02T08:43:18.379Z,11.11
2022-11-02T08:48:34.403Z,11.17
2022-11-02T08:51:02.855Z,11.18
2022-11-02T08:53:30.751Z,11.20
2022-11-02T08:55:59.412Z,11.23
2022-11-02T08:58:27.617Z,11.23
2022-11-02T09:00:56.123Z,11.25
2022-11-02T09:03:27.272Z,11.23
2022-11-02T09:06:00.903Z,11.22
2022-11-02T09:08:30.403Z,11.22
2022-11-02T09:11:01.708Z,11.23
2022-11-02T09:13:30.039Z,11.25
2022-11-02T09:15:59.749Z,11.27
2022-11-02T09:18:28.056Z,11.29
2022-11-02T09:20:56.564Z,11.31
2022-11-02T09:23:24.598Z,11.30
2022-11-02T09:25:52.672Z,11.33
2022-11-02T09:28:20.541Z,11.33
2022-11-02T09:30:48.624Z,11.33
2022-11-02T09:33:16.664Z,11.36
2022-11-02T09:35:47.419Z,11.41
2022-11-02T09:38:18.372Z,11.43
2022-11-02T09:41:22.468Z,11.45
2022-11-02T09:44:00.142Z,11.50
2022-11-02T09:46:40.327Z,11.55
2022-11-02T09:49:14.268Z,11.57
2022-11-02T09:51:50.434Z,11.58
2022-11-02T09:54:35.967Z,11.58
2022-11-02T09:57:11.767Z,11.57
2022-11-02T09:59:41.072Z,11.57
2022-11-02T10:02:40.269Z,11.54
2022-11-02T10:05:11.285Z,11.52
2022-11-02T10:07:49.982Z,11.53
2022-11-02T10:10:38.594Z,11.51
2022-11-02T10:13:31.498Z,11.50
2022-11-02T10:16:12.071Z,11.50
2022-11-02T10:18:42.141Z,11.52
2022-11-02T10:21:24.882Z,11.52
2022-11-02T10:23:55.295Z,11.53
2022-11-02T10:26:28.198Z,11.52
2022-11-02T10:29:04.519Z,11.51
2022-11-02T10:31:36.122Z,11.51
2022-11-02T10:34:45.551Z,11.48
2022-11-02T10:37:18.311Z,11.48
2022-11-02T10:40:15.966Z,11.54
2022-11-02T10:42:59.393Z,11.59
2022-11-02T10:45:46.342Z,11.63
2022-11-02T10:48:32.915Z,11.64
2022-11-02T10:51:09.728Z,11.70
2022-11-02T10:53:42.616Z,11.80
2022-11-02T10:56:20.081Z,11.86
2022-11-02T10:58:57.178Z,11.91
2022-11-02T11:01:26.533Z,11.99
2022-11-02T11:03:59.072Z,12.06
2022-11-02T11:06:34.713Z,12.12
2022-11-02T11:09:16.293Z,12.19
2022-11-02T11:11:55.082Z,12.23
2022-11-02T11:20:33.362Z,12.50
2022-11-02T11:23:12.484Z,12.58
2022-11-02T11:25:41.592Z,12.65
2022-11-02T11:28:55.349Z,12.70
2022-11-02T11:31:24.425Z,12.76
2022-11-02T11:33:56.029Z,12.80
2022-11-02T11:36:33.468Z,12.82
2022-11-02T11:39:07.914Z,12.81
2022-11-02T11:41:41.392Z,12.78
2022-11-02T11:44:14.664Z,12.73
2022-11-02T11:46:56.376Z,12.67
2022-11-02T11:52:33.167Z,12.66
2022-11-02T11:55:19.052Z,12.72
2022-11-02T11:57:47.330Z,12.70
2022-11-02T12:00:29.079Z,12.66
2022-11-02T12:03:11.018Z,12.65
2022-11-02T12:05:48.508Z,12.68
2022-11-02T12:08:28.665Z,12.69
2022-11-02T12:11:02.576Z,12.74
2022-11-02T12:13:30.538Z,12.81
2022-11-02T12:16:10.694Z,12.85
2022-11-02T12:19:10.916Z,12.87
2022-11-02T12:21:58.663Z,12.89
2022-11-02T12:25:05.099Z,12.90
2022-11-02T12:27:48.283Z,12.89
2022-11-02T12:30:30.911Z,12.91
2022-11-02T12:33:35.560Z,12.91
2022-11-02T12:36:27.110Z,12.87
2022-11-02T12:39:08.551Z,12.88
2022-11-02T12:41:59.295Z,12.88
2022-11-02T12:44:27.367Z,12.89
2022-11-02T12:47:14.488Z,12.91
2022-11-02T12:50:05.387Z,12.97
2022-11-02T12:52:33.079Z,13.00
2022-11-02T12:55:05.021Z,13.00
2022-11-02T12:57:38.335Z,13.01
2022-11-02T13:00:19.248Z,13.01
2022-11-02T13:03:08.203Z,12.96
2022-11-02T13:05:41.173Z,12.88
2022-11-02T13:08:09.101Z,12.87
2022-11-02T13:10:48.237Z,12.87
2022-11-02T13:13:45.635Z,12.87
2022-11-02T13:16:16.881Z,12.81
2022-11-02T13:18:50.328Z,12.80
2022-11-02T13:21:38.462Z,12.80
2022-11-02T13:24:16.776Z,12.77
2022-11-02T13:26:53.221Z,12.76
2022-11-02T13:29:46.816Z,12.75
2022-11-02T13:32:37.994Z,12.75
2022-11-02T13:35:16.399Z,12.73
2022-11-02T13:38:00.792Z,12.72
2022-11-02T13:40:33.780Z,12.72
2022-11-02T13:43:21.900Z,12.72
2022-11-02T13:46:01.846Z,12.71
2022-11-02T13:48:55.334Z,12.71
2022-11-02T13:51:33.344Z,12.71
2022-11-02T13:54:13.392Z,12.70
2022-11-02T13:56:42.500Z,12.68
2022-11-02T13:59:20.603Z,12.68
2022-11-02T14:01:51.031Z,12.65
2022-11-02T14:04:20.421Z,12.61
2022-11-02T14:06:58.423Z,12.55
2022-11-02T14:09:28.543Z,12.55
2022-11-02T14:12:24.904Z,12.53
2022-11-02T14:15:15.534Z,12.45
2022-11-02T14:18:05.050Z,12.41
2022-11-02T14:20:38.506Z,12.37
2022-11-02T14:23:10.283Z,12.32
2022-11-02T14:25:53.238Z,12.29
2022-11-02T14:28:21.362Z,12.26
2022-11-02T14:30:57.818Z,12.25
2022-11-02T14:33:50.721Z,12.27
2022-11-02T14:36:19.710Z,12.24
2022-11-02T14:38:59.229Z,12.24
2022-11-02T14:41:52.032Z,12.24
2022-11-02T14:44:38.496Z,12.24
2022-11-02T14:47:10.907Z,12.22
2022-11-02T14:50:01.219Z,12.22
2022-11-02T14:52:36.142Z,12.21
2022-11-02T14:55:19.547Z,12.20
2022-11-02T14:58:18.816Z,12.15
2022-11-02T15:00:50.062Z,12.13
2022-11-02T15:03:41.378Z,12.14
2022-11-02T15:06:13.626Z,12.15
2022-11-02T15:09:04.297Z,12.16
2022-11-02T15:11:57.420Z,12.11
2022-11-02T15:14:41.671Z,12.10
2022-11-02T15:17:12.830Z,12.11
2022-11-02T15:19:51.987Z,12.09
2022-11-02T15:22:29.233Z,12.06
2022-11-02T15:25:05.903Z,12.01
2022-11-02T15:27:36.096Z,11.96
2022-11-02T15:30:13.841Z,11.94
2022-11-02T15:32:48.527Z,11.95
2022-11-02T15:35:21.128Z,11.92
2022-11-02T15:38:15.853Z,11.91
2022-11-02T15:40:47.879Z,11.89
2022-11-02T15:43:40.735Z,11.88
2022-11-02T15:46:55.008Z,11.87
2022-11-02T15:49:26.196Z,11.86
2022-11-02T15:52:15.502Z,11.84
2022-11-02T15:54:56.022Z,11.88
2022-11-02T15:58:03.138Z,11.90
2022-11-02T16:00:31.307Z,11.92
2022-11-02T16:03:02.828Z,11.93
2022-11-02T16:05:38.936Z,11.95
2022-11-02T16:08:25.253Z,11.94
2022-11-02T16:11:13.499Z,11.92
2022-11-02T16:13:55.579Z,11.91
2022-11-02T16:16:34.706Z,11.90
2022-11-02T16:19:04.318Z,11.89
2022-11-02T16:21:32.493Z,11.89
2022-11-02T16:24:00.558Z,11.87
2022-11-02T16:26:29.917Z,11.87
2022-11-02T16:29:00.126Z,11.86
2022-11-02T16:31:32.776Z,11.85
2022-11-02T16:34:15.894Z,11.84
2022-11-02T16:36:44.675Z,11.85
2022-11-02T16:39:27.034Z,11.87
2022-11-02T16:41:58.122Z,11.87
2022-11-02T16:44:31.741Z,11.88
2022-11-02T16:47:12.281Z,11.87
2022-11-02T16:49:52.511Z,11.86
2022-11-02T16:52:23.653Z,11.84
2022-11-02T16:54:51.657Z,11.83
2022-11-02T16:57:26.709Z,11.81
2022-11-02T16:59:57.442Z,11.78
2022-11-02T17:02:37.468Z,11.77
2022-11-02T17:05:21.016Z,11.78
2022-11-02T17:08:10.462Z,11.78
2022-11-02T17:10:39.187Z,11.78
2022-11-02T17:13:21.363Z,11.78
2022-11-02T17:15:51.552Z,11.77
2022-11-02T17:18:22.529Z,11.77
2022-11-02T17:21:12.209Z,11.75
2022-11-02T17:23:44.071Z,11.75
2022-11-02T17:26:27.299Z,11.76
2022-11-02T17:29:03.203Z,11.74
2022-11-02T17:31:38.795Z,11.71
2022-11-02T17:34:15.480Z,11.69
2022-11-02T17:36:45.173Z,11.67
2022-11-02T17:39:15.263Z,11.66
2022-11-02T17:42:10.805Z,11.65
2022-11-02T17:44:39.188Z,11.62
2022-11-02T17:47:18.725Z,11.60
2022-11-02T17:49:46.698Z,11.64
2022-11-02T17:52:16.562Z,11.63
2022-11-02T17:54:44.408Z,11.59
2022-11-02T17:57:14.692Z,11.60
2022-11-02T17:59:42.650Z,11.58
2022-11-02T18:02:15.655Z,11.58
2022-11-02T18:07:17.217Z,11.59
2022-11-02T18:09:45.491Z,11.57
2022-11-02T18:12:14.456Z,11.55
2022-11-02T18:14:42.830Z,11.55
2022-11-02T18:17:10.839Z,11.53
2022-11-02T18:19:39.013Z,11.53
2022-11-02T18:22:07.075Z,11.51
2022-11-02T18:24:34.866Z,11.52
2022-11-02T18:27:02.805Z,11.51
2022-11-02T18:29:30.642Z,11.50
2022-11-02T18:31:58.408Z,11.51
2022-11-02T18:34:26.347Z,11.50
2022-11-02T18:36:54.130Z,11.50
2022-11-02T18:39:21.939Z,11.53
2022-11-02T18:41:50.276Z,11.52
2022-11-02T18:44:18.409Z,11.51
2022-11-02T18:46:46.456Z,11.50
2022-11-02T18:49:14.833Z,11.49
2022-11-02T18:51:43.832Z,11.47
2022-11-02T18:54:12.272Z,11.44
2022-11-02T18:56:40.584Z,11.43
2022-11-02T18:59:08.477Z,11.41
2022-11-02T19:01:36.729Z,11.40
2022-11-02T19:04:05.211Z,11.38
2022-11-02T19:06:52.507Z,11.35
2022-11-02T19:09:23.875Z,11.36
2022-11-02T19:12:00.604Z,11.35
2022-11-02T19:14:40.417Z,11.34
2022-11-02T19:17:13.258Z,11.33
2022-11-02T19:19:43.157Z,11.32
2022-11-02T19:22:21.732Z,11.31
2022-11-02T19:24:50.805Z,11.30
2022-11-02T19:27:24.201Z,11.30
2022-11-02T19:29:52.893Z,11.29
2022-11-02T19:32:21.196Z,11.29
2022-11-02T19:34:49.366Z,11.29
2022-11-02T19:37:17.202Z,11.28
2022-11-02T19:39:45.171Z,11.27
2022-11-02T19:42:13.031Z,11.27
2022-11-02T19:44:43.013Z,11.26
2022-11-02T19:47:11.116Z,11.26
2022-11-02T19:49:39.083Z,11.27
2022-11-02T19:52:07.123Z,11.27
2022-11-02T19:54:35.338Z,11.26
2022-11-02T19:57:03.108Z,11.24
2022-11-02T19:59:31.167Z,11.23
2022-11-02T20:01:59.042Z,11.23
2022-11-02T20:04:27.318Z,11.22
2022-11-02T20:06:55.321Z,11.20
2022-11-02T20:09:25.813Z,11.18
2022-11-02T20:11:53.773Z,11.17
2022-11-02T20:14:21.951Z,11.15
2022-11-02T20:16:58.676Z,11.11
2022-11-02T20:19:38.667Z,11.10
2022-11-02T20:22:06.744Z,11.10
2022-11-02T20:24:34.817Z,11.11
2022-11-02T20:27:04.728Z,11.12
2022-11-02T20:29:32.643Z,11.11
2022-11-02T20:32:05.202Z,11.11
2022-11-02T20:34:33.242Z,11.11
2022-11-02T20:37:01.167Z,11.12
2022-11-02T20:39:29.079Z,11.10
2022-11-02T20:41:57.175Z,11.09
2022-11-02T20:44:25.289Z,11.11
2022-11-02T20:46:53.798Z,11.11
2022-11-02T20:49:44.232Z,11.11
2022-11-02T20:52:10.755Z,11.10
2022-11-02T20:54:39.071Z,11.08
2022-11-02T20:57:06.987Z,11.06
2022-11-02T20:59:34.772Z,11.05
2022-11-02T21:02:02.717Z,11.04
2022-11-02T21:04:30.886Z,11.02
2022-11-02T21:06:58.769Z,11.01
2022-11-02T21:09:26.614Z,11.02
2022-11-02T21:12:13.146Z,11.04
2022-11-02T21:14:41.036Z,11.03
2022-11-02T21:17:09.072Z,11.02
2022-11-02T21:19:36.991Z,10.99
2022-11-02T21:22:04.944Z,11.00
2022-11-02T21:24:33.677Z,11.00
2022-11-02T21:27:06.870Z,10.97
2022-11-02T21:29:35.081Z,10.97
2022-11-02T21:32:02.992Z,10.96
2022-11-02T21:34:30.977Z,10.95
2022-11-02T21:36:59.056Z,10.93
2022-11-02T21:39:27.534Z,10.94
2022-11-02T21:41:55.503Z,10.93
2022-11-02T21:44:25.140Z,10.91
2022-11-02T21:46:52.923Z,10.90
2022-11-02T21:49:20.992Z,10.90
2022-11-02T21:51:49.450Z,10.91
2022-11-02T21:54:19.886Z,10.89
2022-11-02T21:56:48.502Z,10.88
2022-11-02T21:59:16.465Z,10.87
2022-11-02T22:01:45.026Z,10.87
2022-11-02T22:04:21.549Z,10.86
2022-11-02T22:06:50.749Z,10.85
2022-11-02T22:09:19.114Z,10.85
2022-11-02T22:11:48.021Z,10.85
2022-11-02T22:14:16.200Z,10.87
2022-11-02T22:16:44.136Z,10.87
2022-11-02T22:19:13.954Z,10.87
2022-11-02T22:21:44.419Z,10.86
2022-11-02T22:24:12.579Z,10.85
2022-11-02T22:26:40.913Z,10.87
2022-11-02T22:29:09.389Z,10.90
2022-11-02T22:31:40.500Z,10.89
2022-11-02T22:34:11.105Z,10.90
2022-11-02T22:36:42.292Z,10.89
2022-11-02T22:39:12.880Z,10.89
2022-11-02T22:41:48.217Z,10.92
2022-11-02T22:44:18.769Z,10.92
2022-11-02T22:46:49.767Z,10.91
2022-11-02T22:49:18.676Z,10.93
2022-11-02T22:51:48.901Z,10.90
2022-11-02T22:54:19.223Z,10.92
2022-11-02T22:56:48.587Z,10.96
2022-11-02T22:59:16.490Z,10.93
2022-11-02T23:01:44.381Z,10.93
2022-11-02T23:04:13.231Z,10.93
2022-11-02T23:06:41.422Z,10.94
2022-11-02T23:09:10.812Z,10.93
2022-11-02T23:11:38.663Z,10.92
2022-11-02T23:14:09.936Z,10.91
2022-11-02T23:16:43.550Z,10.91
2022-11-02T23:19:27.130Z,10.90
2022-11-02T23:22:28.418Z,10.89
2022-11-02T23:25:13.915Z,10.89
2022-11-02T23:28:02.041Z,10.89
2022-11-02T23:30:51.510Z,10.89
2022-11-02T23:33:20.645Z,10.89
2022-11-02T23:36:07.928Z,10.88
2022-11-02T23:38:54.546Z,10.88
2022-11-02T23:41:22.496Z,10.87
2022-11-02T23:43:50.579Z,10.87
2022-11-02T23:46:18.440Z,10.85
2022-11-02T23:48:49.637Z,10.86
2022-11-02T23:51:39.362Z,10.87
2022-11-02T23:54:26.687Z,10.87
2022-11-02T23:56:54.652Z,10.89
2022-11-02T23:59:22.521Z,10.89
